Wailuku, HI

7:29 AM HST on February 28, 2015 (GMT -1000)
Kahului | Change Station
CLOSE
Current Station
Airport
Location: Kahului,
Elevation: 49 ft
Nearby Weather Stations
Active Advisory: Areal Flood Advisory Active Notice: Record Report

Elev 49 ft 20.90 °N, 156.43 °W | Updated 35 minutes ago

Mostly Cloudy
Mostly Cloudy
74 °F
Feels Like 74 °F
N
10
Wind Variable Wind from NNE

Today
High -- | Low -- °F
--% Chance of Precip.
Yesterday
High -- | Low -- °F
Precip. -- in
6:47 AM 6:30 PM
Waxing Gibbous, 79% visible
Pressure 29.95 in
Visibility 10.0 miles
Clouds Scattered Clouds 1500 ft
Mostly Cloudy 3100 ft
Dew Point 68 °F
Humidity 82%
Rainfall 0.02 in
Snow Depth Not available.
UV 0 out of 12
Pollen Not available.
Air Quality Not available.
Flu Activity Not available.
METAR PHOG 281654Z 03009KT 10SM SCT015 BKN031 23/20 A2993 RMK AO2 RAE23 SLP141 P0000 T02330200 $

More Conditions Fewer Conditions

Pressure 29.95 in
Visibility 10.0 miles
Clouds Scattered Clouds 1500 ft
Mostly Cloudy 3100 ft
Dew Point 68 °F
Humidity 82%
Rainfall 0.02 in
Snow Depth Not available.
UV 0 out of 12
Pollen Not available.
Air Quality Not available.
Flu Activity Not available.
METAR PHOG 281654Z 03009KT 10SM SCT015 BKN031 23/20 A2993 RMK AO2 RAE23 SLP141 P0000 T02330200 $

More Conditions Fewer Conditions

10-Day Weather Forecast

Almanac

Astronomy

Feb. 28, 2015 Rise Set
Actual Time
Civil Twilight
Nautical Twilight
Astronomical Twilight
Moon
Length of Visible Light
Length of Day
Tomorrow will be .
, % of the Moon is Illuminated

Today's Extremes

State Highs State Lows

Community

WunderPhotos

Upload Photos

1,801,101 photos uploaded!

WunderBlogs® & News

Nearby

Air Quality

  Air Quality AQ Index Pollutant
Not available.

Snow Depth

Station Depth Elevation

Earthquake Activity

City Distance Mag. Time & Date
Minimum magnitude displayed is 2.5.

Coastal Water Temperatures

Place Temperature

Nearby Weather Stations

Areal Flood Advisory
Statement as of 6:38 AM HST on February 28, 2015

The National Weather Service in Honolulu has issued a

* Flood Advisory for the island of Molokai in Maui County

* until 930 am HST

* at 630 am HST... radar showed heavy rain 7 miles north of Kamalo...
or about 33 miles northwest of Kahului. The area of heavy rain was
nearly stationary.

* Other locations in the advisory include but are not limited to
Kalaupapa and Halawa Valley.

Precautionary/preparedness actions...

Stay away from streams... drainage ditches and low lying areas prone
to flooding.

Rainfall and runoff will also cause hazardous driving conditions due
to ponding... reduced visibility and poor braking action.

Do not cross fast flowing or rising water in your vehicle or on foot.
Turn around... Don/T drown.


This advisory may need to be extended beyond 930 am HST if heavy rain
persists.

Lat... Lon 2125 15704 2124 15663 2102 15678 2106 15706